MDT,Max TemperatureF,Mean TemperatureF,Min TemperatureF,Max Dew PointF,MeanDew PointF,Min DewpointF,Max Humidity, Mean Humidity, Min Humidity, Max Sea Level PressureIn, Mean Sea Level PressureIn, Min Sea Level PressureIn, Max VisibilityMiles, Mean VisibilityMiles, Min VisibilityMiles, Max Wind SpeedMPH, Mean Wind SpeedMPH, Max Gust SpeedMPH,PrecipitationIn, CloudCover, Events, WindDirDegrees
2012-9-1,76,57,38,46,33,13,86,49,11,29.99,29.85,29.76,,,,20,5,32,0.00,,,295
2012-9-2,73,48,23,24,16,8,81,45,9,30.15,30.06,30.00,,,,13,4,20,0.00,,,242
2012-9-3,76,50,23,23,15,12,60,35,10,30.18,30.07,30.00,,,,17,4,26,0.00,,,223
2012-9-4,75,51,26,24,19,14,63,38,13,30.14,30.05,30.00,,,,14,4,21,0.00,,,252
2012-9-5,75,51,26,29,22,16,81,46,11,30.14,30.02,29.93,,,,17,4,30,0.00,,,262
2012-9-6,68,47,26,28,23,20,69,44,18,30.14,30.01,29.90,,,,13,3,18,0.00,,,152
2012-9-7,76,50,23,30,21,15,88,50,11,30.31,30.21,30.14,,,,13,3,18,0.00,,,134
2012-9-8,79,52,25,27,21,15,75,42,9,30.35,30.19,30.04,,,,12,3,18,0.00,,,161
2012-9-9,78,55,31,47,31,23,72,47,21,30.06,29.93,29.82,,,,16,3,25,0.01,,,188
2012-9-10,71,52,33,34,24,8,82,46,9,29.94,29.86,29.81,,,,18,4,33,0.00,,,197
2012-9-11,68,46,23,27,15,6,81,45,9,30.13,30.02,29.92,,,,13,3,18,0.00,,,327
2012-9-12,72,44,16,14,11,7,67,38,8,30.37,30.26,30.13,,,,12,3,18,0.00,,,10
2012-9-13,80,50,19,18,11,2,67,36,5,30.50,30.36,30.24,,,,12,2,17,0.00,,,313
2012-9-14,80,51,21,18,11,3,62,34,5,30.40,30.25,30.12,,,,16,3,28,0.00,,,273
2012-9-15,76,51,25,26,18,12,57,35,13,30.25,30.12,30.06,,,,21,3,28,0.00,,,178
2012-9-16,74,52,29,32,25,20,75,45,14,30.17,30.09,29.98,,,,15,3,23,0.00,,,253
2012-9-17,71,47,22,31,24,20,92,53,14,30.28,30.16,30.08,,,,9,2,16,0.00,,,190
2012-9-18,76,50,23,27,22,19,75,44,13,30.27,30.15,30.05,,,,10,2,16,0.00,,,13
2012-9-19,77,51,24,27,22,18,75,43,11,30.27,30.16,30.07,,,,8,2,13,0.00,,,4
2012-9-20,78,51,24,25,20,16,75,42,9,30.29,30.17,30.05,,,,9,2,28,0.00,,,130
2012-9-21,79,52,24,26,19,8,81,44,7,30.27,30.12,29.99,,,,9,2,12,0.00,,,180
2012-9-22,80,52,24,23,19,14,68,39,10,30.20,30.06,29.95,,,,12,2,15,0.00,,,334
2012-9-23,66,53,39,48,36,25,100,65,30,30.09,29.97,29.88,,,,12,2,20,0.10,,,338
2012-9-24,62,52,42,45,42,35,100,70,39,30.07,29.99,29.91,,,,7,1,10,0.00,,,340
2012-9-25,65,53,41,48,42,39,100,70,40,29.99,29.92,29.85,,,,16,2,24,0.25,,,154
2012-9-26,70,53,35,46,37,31,100,63,26,30.11,30.03,29.94,,,,8,1,13,0.00,,,156
2012-9-27,73,50,27,38,31,25,100,59,17,30.18,30.08,29.98,,,,10,2,15,0.00,,,264
2012-9-28,70,48,26,40,31,25,92,57,22,30.16,30.05,29.98,,,,17,2,24,0.00,,,275
2012-9-29,71,52,32,38,32,27,89,56,22,30.16,30.07,29.98,,,,13,3,18,0.00,,,222
2012-9-30,73,50,27,33,27,20,85,50,14,30.31,30.21,30.13,,,,12,2,16,0.00,,,278